sensor_id;sensor_type;location;lat;lon;timestamp;temperature;humidity
35559;DHT22;21661;50.794;-1.066;2023-03-01T00:01:27;5.20;99.90
35559;DHT22;21661;50.794;-1.066;2023-03-01T00:03:53;5.20;99.90
35559;DHT22;21661;50.794;-1.066;2023-03-01T00:06:20;5.20;99.90
35559;DHT22;21661;50.794;-1.066;2023-03-01T00:08:46;5.20;99.90
35559;DHT22;21661;50.794;-1.066;2023-03-01T00:11:32;5.10;99.90
35559;DHT22;21661;50.794;-1.066;2023-03-01T00:14:00;5.10;99.90
35559;DHT22;21661;50.794;-1.066;2023-03-01T00:16:31;5.10;99.90
35559;DHT22;21661;50.794;-1.066;2023-03-01T00:18:59;5.10;99.90
35559;DHT22;21661;50.794;-1.066;2023-03-01T00:21:25;5.10;99.90
35559;DHT22;21661;50.794;-1.066;2023-03-01T00:23:52;5.10;99.90
35559;DHT22;21661;50.794;-1.066;2023-03-01T00:26:19;5.10;99.90
35559;DHT22;21661;50.794;-1.066;2023-03-01T00:28:45;5.00;99.90
35559;DHT22;21661;50.794;-1.066;2023-03-01T00:31:17;5.10;99.90
35559;DHT22;21661;50.794;-1.066;2023-03-01T00:33:44;5.00;99.90
35559;DHT22;21661;50.794;-1.066;2023-03-01T00:36:11;5.00;99.90
35559;DHT22;21661;50.794;-1.066;2023-03-01T00:38:42;5.10;99.90
35559;DHT22;21661;50.794;-1.066;2023-03-01T00:41:10;5.10;99.90
35559;DHT22;21661;50.794;-1.066;2023-03-01T00:43:36;5.10;99.90
35559;DHT22;21661;50.794;-1.066;2023-03-01T00:46:07;5.10;99.90
35559;DHT22;21661;50.794;-1.066;2023-03-01T00:48:34;5.10;99.90
35559;DHT22;21661;50.794;-1.066;2023-03-01T00:51:20;5.10;99.90
35559;DHT22;21661;50.794;-1.066;2023-03-01T00:53:46;5.10;99.90
35559;DHT22;21661;50.794;-1.066;2023-03-01T00:56:14;5.10;99.90
35559;DHT22;21661;50.794;-1.066;2023-03-01T00:58:40;5.10;99.90
35559;DHT22;21661;50.794;-1.066;2023-03-01T01:01:11;5.10;99.90
35559;DHT22;21661;50.794;-1.066;2023-03-01T01:03:52;5.10;99.90
35559;DHT22;21661;50.794;-1.066;2023-03-01T01:08:52;5.10;99.90
35559;DHT22;21661;50.794;-1.066;2023-03-01T01:11:18;5.10;99.90
35559;DHT22;21661;50.794;-1.066;2023-03-01T01:13:46;5.10;99.90
35559;DHT22;21661;50.794;-1.066;2023-03-01T01:16:12;5.10;99.90
35559;DHT22;21661;50.794;-1.066;2023-03-01T01:18:38;5.10;99.90
35559;DHT22;21661;50.794;-1.066;2023-03-01T01:21:12;5.10;99.90
35559;DHT22;21661;50.794;-1.066;2023-03-01T01:23:39;5.00;99.90
35559;DHT22;21661;50.794;-1.066;2023-03-01T01:26:11;4.90;99.90
35559;DHT22;21661;50.794;-1.066;2023-03-01T01:28:37;4.90;99.90
35559;DHT22;21661;50.794;-1.066;2023-03-01T01:31:03;4.80;99.90
35559;DHT22;21661;50.794;-1.066;2023-03-01T01:33:29;4.70;99.90
35559;DHT22;21661;50.794;-1.066;2023-03-01T01:35:55;4.80;99.90
35559;DHT22;21661;50.794;-1.066;2023-03-01T01:38:20;4.80;99.90
35559;DHT22;21661;50.794;-1.066;2023-03-01T01:40:47;4.80;99.90
35559;DHT22;21661;50.794;-1.066;2023-03-01T01:43:28;4.70;99.90
35559;DHT22;21661;50.794;-1.066;2023-03-01T01:45:59;4.70;99.90
35559;DHT22;21661;50.794;-1.066;2023-03-01T01:48:34;4.60;99.90
35559;DHT22;21661;50.794;-1.066;2023-03-01T01:51:09;4.70;99.90
35559;DHT22;21661;50.794;-1.066;2023-03-01T01:53:36;4.70;99.90
35559;DHT22;21661;50.794;-1.066;2023-03-01T01:56:02;4.60;99.90
35559;DHT22;21661;50.794;-1.066;2023-03-01T01:58:29;4.60;99.90
35559;DHT22;21661;50.794;-1.066;2023-03-01T02:00:55;4.60;99.90
35559;DHT22;21661;50.794;-1.066;2023-03-01T02:03:31;4.70;99.90
35559;DHT22;21661;50.794;-1.066;2023-03-01T02:08:28;4.70;99.90
35559;DHT22;21661;50.794;-1.066;2023-03-01T02:10:56;4.70;99.90
35559;DHT22;21661;50.794;-1.066;2023-03-01T02:13:23;4.60;99.90
35559;DHT22;21661;50.794;-1.066;2023-03-01T02:15:49;4.80;99.90
35559;DHT22;21661;50.794;-1.066;2023-03-01T02:18:18;4.70;99.90
35559;DHT22;21661;50.794;-1.066;2023-03-01T02:23:31;4.70;99.90
35559;DHT22;21661;50.794;-1.066;2023-03-01T02:26:01;4.70;99.90
35559;DHT22;21661;50.794;-1.066;2023-03-01T02:28:36;4.70;99.90
35559;DHT22;21661;50.794;-1.066;2023-03-01T02:31:05;4.70;99.90
35559;DHT22;21661;50.794;-1.066;2023-03-01T02:33:51;4.70;99.90
35559;DHT22;21661;50.794;-1.066;2023-03-01T02:36:19;4.70;99.90
35559;DHT22;21661;50.794;-1.066;2023-03-01T02:38:46;4.70;99.90
35559;DHT22;21661;50.794;-1.066;2023-03-01T02:41:15;4.60;99.90
35559;DHT22;21661;50.794;-1.066;2023-03-01T02:43:41;4.60;99.90
35559;DHT22;21661;50.794;-1.066;2023-03-01T02:46:22;4.60;99.90
35559;DHT22;21661;50.794;-1.066;2023-03-01T02:48:51;4.50;99.90
35559;DHT22;21661;50.794;-1.066;2023-03-01T02:51:34;4.60;99.90
35559;DHT22;21661;50.794;-1.066;2023-03-01T02:56:41;4.60;99.90
35559;DHT22;21661;50.794;-1.066;2023-03-01T02:59:08;4.60;99.90
35559;DHT22;21661;50.794;-1.066;2023-03-01T03:01:34;4.60;99.90
35559;DHT22;21661;50.794;-1.066;2023-03-01T03:04:05;4.70;99.90
35559;DHT22;21661;50.794;-1.066;2023-03-01T03:06:31;4.60;99.90
35559;DHT22;21661;50.794;-1.066;2023-03-01T03:08:56;4.60;99.90
35559;DHT22;21661;50.794;-1.066;2023-03-01T03:11:22;4.60;99.90
35559;DHT22;21661;50.794;-1.066;2023-03-01T03:13:48;4.70;99.90
35559;DHT22;21661;50.794;-1.066;2023-03-01T03:16:14;4.70;99.90
35559;DHT22;21661;50.794;-1.066;2023-03-01T03:18:40;4.60;99.90
35559;DHT22;21661;50.794;-1.066;2023-03-01T03:21:09;4.60;99.90
35559;DHT22;21661;50.794;-1.066;2023-03-01T03:23:36;4.60;99.90
35559;DHT22;21661;50.794;-1.066;2023-03-01T03:26:02;4.60;99.90
35559;DHT22;21661;50.794;-1.066;2023-03-01T03:28:30;4.60;99.90
35559;DHT22;21661;50.794;-1.066;2023-03-01T03:30:56;4.60;99.90
35559;DHT22;21661;50.794;-1.066;2023-03-01T03:33:22;4.60;99.90
35559;DHT22;21661;50.794;-1.066;2023-03-01T03:35:49;4.60;99.90
35559;DHT22;21661;50.794;-1.066;2023-03-01T03:38:16;4.70;99.90
35559;DHT22;21661;50.794;-1.066;2023-03-01T03:40:45;4.70;99.90
35559;DHT22;21661;50.794;-1.066;2023-03-01T03:43:13;4.60;99.90
35559;DHT22;21661;50.794;-1.066;2023-03-01T03:45:39;4.70;99.90
35559;DHT22;21661;50.794;-1.066;2023-03-01T03:48:06;4.70;99.90
35559;DHT22;21661;50.794;-1.066;2023-03-01T03:50:33;4.70;99.90
35559;DHT22;21661;50.794;-1.066;2023-03-01T03:53:01;4.70;99.90
35559;DHT22;21661;50.794;-1.066;2023-03-01T03:55:27;4.60;99.90
35559;DHT22;21661;50.794;-1.066;2023-03-01T03:57:57;4.60;99.90
35559;DHT22;21661;50.794;-1.066;2023-03-01T04:00:26;4.70;99.90
35559;DHT22;21661;50.794;-1.066;2023-03-01T04:02:52;4.70;99.90
35559;DHT22;21661;50.794;-1.066;2023-03-01T04:05:21;4.70;99.90
35559;DHT22;21661;50.794;-1.066;2023-03-01T04:07:47;4.70;99.90
35559;DHT22;21661;50.794;-1.066;2023-03-01T04:10:15;4.70;99.90
35559;DHT22;21661;50.794;-1.066;2023-03-01T04:12:41;4.70;99.90
35559;DHT22;21661;50.794;-1.066;2023-03-01T04:15:09;4.60;99.90
35559;DHT22;21661;50.794;-1.066;2023-03-01T04:17:45;4.70;99.90
35559;DHT22;21661;50.794;-1.066;2023-03-01T04:20:16;4.70;99.90
35559;DHT22;21661;50.794;-1.066;2023-03-01T04:22:43;4.70;99.90
35559;DHT22;21661;50.794;-1.066;2023-03-01T04:25:09;4.80;99.90
35559;DHT22;21661;50.794;-1.066;2023-03-01T04:27:35;4.90;99.90
35559;DHT22;21661;50.794;-1.066;2023-03-01T04:30:02;4.90;99.90
35559;DHT22;21661;50.794;-1.066;2023-03-01T04:32:28;4.80;99.90
35559;DHT22;21661;50.794;-1.066;2023-03-01T04:34:54;4.80;99.90
35559;DHT22;21661;50.794;-1.066;2023-03-01T04:37:19;4.90;99.90
35559;DHT22;21661;50.794;-1.066;2023-03-01T04:39:45;4.80;99.90
35559;DHT22;21661;50.794;-1.066;2023-03-01T04:42:13;4.90;99.90
35559;DHT22;21661;50.794;-1.066;2023-03-01T04:44:39;4.90;99.90
35559;DHT22;21661;50.794;-1.066;2023-03-01T04:47:04;4.90;99.90
35559;DHT22;21661;50.794;-1.066;2023-03-01T04:49:30;4.90;99.90
35559;DHT22;21661;50.794;-1.066;2023-03-01T04:51:56;5.00;99.90
35559;DHT22;21661;50.794;-1.066;2023-03-01T04:54:36;5.00;99.90
35559;DHT22;21661;50.794;-1.066;2023-03-01T04:57:03;5.00;99.90
35559;DHT22;21661;50.794;-1.066;2023-03-01T04:59:29;5.00;99.90
35559;DHT22;21661;50.794;-1.066;2023-03-01T05:01:56;5.00;99.90
35559;DHT22;21661;50.794;-1.066;2023-03-01T05:04:23;5.10;99.90
35559;DHT22;21661;50.794;-1.066;2023-03-01T05:06:50;5.10;99.90
35559;DHT22;21661;50.794;-1.066;2023-03-01T05:09:15;5.10;99.90
35559;DHT22;21661;50.794;-1.066;2023-03-01T05:11:41;5.10;99.90
35559;DHT22;21661;50.794;-1.066;2023-03-01T05:14:08;5.20;99.90
35559;DHT22;21661;50.794;-1.066;2023-03-01T05:16:35;5.10;99.90
35559;DHT22;21661;50.794;-1.066;2023-03-01T05:19:01;5.10;99.90
35559;DHT22;21661;50.794;-1.066;2023-03-01T05:21:37;5.10;99.90
35559;DHT22;21661;50.794;-1.066;2023-03-01T05:24:23;5.10;99.90
35559;DHT22;21661;50.794;-1.066;2023-03-01T05:26:49;5.10;99.90
35559;DHT22;21661;50.794;-1.066;2023-03-01T05:29:17;5.00;99.90
35559;DHT22;21661;50.794;-1.066;2023-03-01T05:31:43;5.10;99.90
35559;DHT22;21661;50.794;-1.066;2023-03-01T05:34:08;5.10;99.90
35559;DHT22;21661;50.794;-1.066;2023-03-01T05:36:34;5.10;99.90
35559;DHT22;21661;50.794;-1.066;2023-03-01T05:39:00;5.10;99.90
35559;DHT22;21661;50.794;-1.066;2023-03-01T05:41:26;5.20;99.90
35559;DHT22;21661;50.794;-1.066;2023-03-01T05:43:51;5.20;99.90
35559;DHT22;21661;50.794;-1.066;2023-03-01T05:46:17;5.20;99.90
35559;DHT22;21661;50.794;-1.066;2023-03-01T05:48:42;5.20;99.90
35559;DHT22;21661;50.794;-1.066;2023-03-01T05:51:09;5.30;99.90
35559;DHT22;21661;50.794;-1.066;2023-03-01T05:53:34;5.30;99.90
35559;DHT22;21661;50.794;-1.066;2023-03-01T05:56:03;5.30;99.90
35559;DHT22;21661;50.794;-1.066;2023-03-01T05:58:29;5.20;99.90
35559;DHT22;21661;50.794;-1.066;2023-03-01T06:00:54;5.20;99.90
35559;DHT22;21661;50.794;-1.066;2023-03-01T06:03:20;5.20;99.90
35559;DHT22;21661;50.794;-1.066;2023-03-01T06:05:45;5.30;99.90
35559;DHT22;21661;50.794;-1.066;2023-03-01T06:08:12;5.30;99.90
35559;DHT22;21661;50.794;-1.066;2023-03-01T06:10:37;5.30;99.90
35559;DHT22;21661;50.794;-1.066;2023-03-01T06:13:04;5.30;99.90
35559;DHT22;21661;50.794;-1.066;2023-03-01T06:15:29;5.30;99.90
35559;DHT22;21661;50.794;-1.066;2023-03-01T06:17:55;5.30;99.90
35559;DHT22;21661;50.794;-1.066;2023-03-01T06:20:27;5.30;99.90
35559;DHT22;21661;50.794;-1.066;2023-03-01T06:22:53;5.20;99.90
35559;DHT22;21661;50.794;-1.066;2023-03-01T06:25:21;5.20;99.90
35559;DHT22;21661;50.794;-1.066;2023-03-01T06:27:47;5.20;99.90
35559;DHT22;21661;50.794;-1.066;2023-03-01T06:30:16;5.20;99.90
35559;DHT22;21661;50.794;-1.066;2023-03-01T06:32:42;5.20;99.90
35559;DHT22;21661;50.794;-1.066;2023-03-01T06:35:12;5.20;99.90
35559;DHT22;21661;50.794;-1.066;2023-03-01T06:37:38;5.10;99.90
35559;DHT22;21661;50.794;-1.066;2023-03-01T06:40:05;5.10;99.90
35559;DHT22;21661;50.794;-1.066;2023-03-01T06:42:36;5.10;99.90
35559;DHT22;21661;50.794;-1.066;2023-03-01T06:45:03;5.10;99.90
35559;DHT22;21661;50.794;-1.066;2023-03-01T06:47:29;5.10;99.90
35559;DHT22;21661;50.794;-1.066;2023-03-01T06:49:54;5.20;99.90
35559;DHT22;21661;50.794;-1.066;2023-03-01T06:52:20;5.20;99.90
35559;DHT22;21661;50.794;-1.066;2023-03-01T06:54:46;5.20;99.90
35559;DHT22;21661;50.794;-1.066;2023-03-01T06:57:11;5.20;99.90
35559;DHT22;21661;50.794;-1.066;2023-03-01T06:59:37;5.20;99.90
35559;DHT22;21661;50.794;-1.066;2023-03-01T07:02:02;5.20;99.90
35559;DHT22;21661;50.794;-1.066;2023-03-01T07:04:28;5.30;99.90
35559;DHT22;21661;50.794;-1.066;2023-03-01T07:06:54;5.30;99.90
35559;DHT22;21661;50.794;-1.066;2023-03-01T07:09:22;5.30;99.90
35559;DHT22;21661;50.794;-1.066;2023-03-01T07:11:48;5.30;99.90
35559;DHT22;21661;50.794;-1.066;2023-03-01T07:14:13;5.30;99.90
35559;DHT22;21661;50.794;-1.066;2023-03-01T07:16:39;5.20;99.90
35559;DHT22;21661;50.794;-1.066;2023-03-01T07:19:05;5.20;99.90
35559;DHT22;21661;50.794;-1.066;2023-03-01T07:21:31;5.30;99.90
35559;DHT22;21661;50.794;-1.066;2023-03-01T07:23:57;5.30;99.90
35559;DHT22;21661;50.794;-1.066;2023-03-01T07:26:22;5.30;99.90
35559;DHT22;21661;50.794;-1.066;2023-03-01T07:28:48;5.30;99.90
35559;DHT22;21661;50.794;-1.066;2023-03-01T07:31:14;5.30;99.90
35559;DHT22;21661;50.794;-1.066;2023-03-01T07:33:40;5.40;99.90
35559;DHT22;21661;50.794;-1.066;2023-03-01T07:36:06;5.40;99.90
35559;DHT22;21661;50.794;-1.066;2023-03-01T07:38:31;5.50;99.90
35559;DHT22;21661;50.794;-1.066;2023-03-01T07:40:59;5.50;99.90
35559;DHT22;21661;50.794;-1.066;2023-03-01T07:43:26;5.50;99.90
35559;DHT22;21661;50.794;-1.066;2023-03-01T07:45:51;5.50;99.90
35559;DHT22;21661;50.794;-1.066;2023-03-01T07:48:18;5.50;99.90
35559;DHT22;21661;50.794;-1.066;2023-03-01T07:50:43;5.60;99.90
35559;DHT22;21661;50.794;-1.066;2023-03-01T07:53:10;5.60;99.90
35559;DHT22;21661;50.794;-1.066;2023-03-01T07:55:36;5.60;99.90
35559;DHT22;21661;50.794;-1.066;2023-03-01T07:58:02;5.60;99.90
35559;DHT22;21661;50.794;-1.066;2023-03-01T08:00:27;5.70;99.90
35559;DHT22;21661;50.794;-1.066;2023-03-01T08:02:53;5.70;99.90
35559;DHT22;21661;50.794;-1.066;2023-03-01T08:05:19;5.70;99.90
35559;DHT22;21661;50.794;-1.066;2023-03-01T08:07:44;5.70;99.90
35559;DHT22;21661;50.794;-1.066;2023-03-01T08:10:10;5.70;99.90
35559;DHT22;21661;50.794;-1.066;2023-03-01T08:12:36;5.80;99.90
35559;DHT22;21661;50.794;-1.066;2023-03-01T08:15:02;5.80;99.90
35559;DHT22;21661;50.794;-1.066;2023-03-01T08:17:27;5.80;99.90
35559;DHT22;21661;50.794;-1.066;2023-03-01T08:19:53;5.90;99.90
35559;DHT22;21661;50.794;-1.066;2023-03-01T08:22:18;5.80;99.90
35559;DHT22;21661;50.794;-1.066;2023-03-01T08:24:44;5.80;99.90
35559;DHT22;21661;50.794;-1.066;2023-03-01T08:27:10;5.80;99.90
35559;DHT22;21661;50.794;-1.066;2023-03-01T08:29:37;5.80;99.90
35559;DHT22;21661;50.794;-1.066;2023-03-01T08:32:03;5.90;99.90
35559;DHT22;21661;50.794;-1.066;2023-03-01T08:34:28;5.90;99.90
35559;DHT22;21661;50.794;-1.066;2023-03-01T08:36:54;6.00;99.90
35559;DHT22;21661;50.794;-1.066;2023-03-01T08:39:20;6.00;99.90
35559;DHT22;21661;50.794;-1.066;2023-03-01T08:41:46;6.10;99.90
35559;DHT22;21661;50.794;-1.066;2023-03-01T08:44:13;6.10;99.90
35559;DHT22;21661;50.794;-1.066;2023-03-01T08:46:42;6.10;99.90
35559;DHT22;21661;50.794;-1.066;2023-03-01T08:49:12;6.10;99.90
35559;DHT22;21661;50.794;-1.066;2023-03-01T08:51:39;6.20;99.90
35559;DHT22;21661;50.794;-1.066;2023-03-01T08:54:06;6.20;99.90
35559;DHT22;21661;50.794;-1.066;2023-03-01T08:56:32;6.20;99.90
35559;DHT22;21661;50.794;-1.066;2023-03-01T08:58:58;6.30;99.90
35559;DHT22;21661;50.794;-1.066;2023-03-01T09:01:23;6.30;99.90
35559;DHT22;21661;50.794;-1.066;2023-03-01T09:03:49;6.40;99.90
35559;DHT22;21661;50.794;-1.066;2023-03-01T09:06:15;6.40;99.90
35559;DHT22;21661;50.794;-1.066;2023-03-01T09:08:43;6.40;99.90
35559;DHT22;21661;50.794;-1.066;2023-03-01T09:11:11;6.40;99.90
35559;DHT22;21661;50.794;-1.066;2023-03-01T09:13:37;6.30;99.90
35559;DHT22;21661;50.794;-1.066;2023-03-01T09:16:04;6.30;99.90
35559;DHT22;21661;50.794;-1.066;2023-03-01T09:18:31;6.20;99.90
35559;DHT22;21661;50.794;-1.066;2023-03-01T09:21:14;6.10;99.90
35559;DHT22;21661;50.794;-1.066;2023-03-01T09:23:42;6.20;99.90
35559;DHT22;21661;50.794;-1.066;2023-03-01T09:26:11;6.10;99.90
35559;DHT22;21661;50.794;-1.066;2023-03-01T09:28:37;6.20;99.90
35559;DHT22;21661;50.794;-1.066;2023-03-01T09:31:04;6.10;99.90
35559;DHT22;21661;50.794;-1.066;2023-03-01T09:33:31;6.20;99.90
35559;DHT22;21661;50.794;-1.066;2023-03-01T09:36:01;6.10;99.90
35559;DHT22;21661;50.794;-1.066;2023-03-01T09:38:27;6.10;99.90
35559;DHT22;21661;50.794;-1.066;2023-03-01T09:40:53;6.10;99.90
35559;DHT22;21661;50.794;-1.066;2023-03-01T09:43:31;6.20;99.90
35559;DHT22;21661;50.794;-1.066;2023-03-01T09:46:04;6.20;99.90
35559;DHT22;21661;50.794;-1.066;2023-03-01T09:48:41;6.30;99.90
35559;DHT22;21661;50.794;-1.066;2023-03-01T09:51:14;6.40;99.90
35559;DHT22;21661;50.794;-1.066;2023-03-01T09:53:42;6.50;99.90
35559;DHT22;21661;50.794;-1.066;2023-03-01T09:56:31;6.50;99.90
35559;DHT22;21661;50.794;-1.066;2023-03-01T10:04:50;6.90;99.90
35559;DHT22;21661;50.794;-1.066;2023-03-01T10:07:27;6.90;99.90
35559;DHT22;21661;50.794;-1.066;2023-03-01T10:09:55;6.80;99.90
35559;DHT22;21661;50.794;-1.066;2023-03-01T10:12:26;6.80;99.90
35559;DHT22;21661;50.794;-1.066;2023-03-01T10:15:16;6.70;99.90
35559;DHT22;21661;50.794;-1.066;2023-03-01T10:17:58;6.70;99.90
35559;DHT22;21661;50.794;-1.066;2023-03-01T10:23:08;6.70;99.90
35559;DHT22;21661;50.794;-1.066;2023-03-01T10:28:52;6.70;99.90
35559;DHT22;21661;50.794;-1.066;2023-03-01T10:31:24;6.70;99.90
35559;DHT22;21661;50.794;-1.066;2023-03-01T10:33:53;6.80;99.90
35559;DHT22;21661;50.794;-1.066;2023-03-01T10:36:21;6.90;99.90
35559;DHT22;21661;50.794;-1.066;2023-03-01T10:38:53;6.90;99.90
35559;DHT22;21661;50.794;-1.066;2023-03-01T10:41:20;7.00;99.90
35559;DHT22;21661;50.794;-1.066;2023-03-01T10:43:58;7.00;99.90
35559;DHT22;21661;50.794;-1.066;2023-03-01T10:46:32;7.10;99.90
35559;DHT22;21661;50.794;-1.066;2023-03-01T10:49:14;7.10;99.90
35559;DHT22;21661;50.794;-1.066;2023-03-01T10:51:42;7.20;99.90
35559;DHT22;21661;50.794;-1.066;2023-03-01T10:54:22;7.20;99.90
35559;DHT22;21661;50.794;-1.066;2023-03-01T10:56:54;7.30;99.90
35559;DHT22;21661;50.794;-1.066;2023-03-01T10:59:38;7.30;99.90
35559;DHT22;21661;50.794;-1.066;2023-03-01T11:02:20;7.30;99.90
35559;DHT22;21661;50.794;-1.066;2023-03-01T11:05:23;7.30;99.90
35559;DHT22;21661;50.794;-1.066;2023-03-01T11:08:00;7.20;99.90
35559;DHT22;21661;50.794;-1.066;2023-03-01T11:10:30;7.30;99.90
35559;DHT22;21661;50.794;-1.066;2023-03-01T11:13:17;7.20;99.90
35559;DHT22;21661;50.794;-1.066;2023-03-01T11:16:02;7.30;99.90
35559;DHT22;21661;50.794;-1.066;2023-03-01T11:18:30;7.40;99.90
35559;DHT22;21661;50.794;-1.066;2023-03-01T11:20:58;7.50;99.90
35559;DHT22;21661;50.794;-1.066;2023-03-01T11:23:24;7.50;99.90
35559;DHT22;21661;50.794;-1.066;2023-03-01T11:25:56;7.50;99.90
35559;DHT22;21661;50.794;-1.066;2023-03-01T11:28:22;7.50;99.90
35559;DHT22;21661;50.794;-1.066;2023-03-01T11:38:38;7.40;99.90
35559;DHT22;21661;50.794;-1.066;2023-03-01T11:41:10;7.40;99.90
35559;DHT22;21661;50.794;-1.066;2023-03-01T11:58:05;7.50;99.90
35559;DHT22;21661;50.794;-1.066;2023-03-01T12:06:16;7.70;99.90
35559;DHT22;21661;50.794;-1.066;2023-03-01T12:09:02;7.70;99.90
35559;DHT22;21661;50.794;-1.066;2023-03-01T12:25:47;7.70;99.90
35559;DHT22;21661;50.794;-1.066;2023-03-01T12:38:50;7.70;99.90
35559;DHT22;21661;50.794;-1.066;2023-03-01T12:41:36;7.80;99.90
35559;DHT22;21661;50.794;-1.066;2023-03-01T12:44:07;7.70;99.90
35559;DHT22;21661;50.794;-1.066;2023-03-01T12:49:55;7.70;99.90
35559;DHT22;21661;50.794;-1.066;2023-03-01T12:55:29;7.70;99.90
35559;DHT22;21661;50.794;-1.066;2023-03-01T12:58:04;7.80;99.90
35559;DHT22;21661;50.794;-1.066;2023-03-01T13:08:47;7.80;99.90
35559;DHT22;21661;50.794;-1.066;2023-03-01T13:11:21;7.80;99.90
35559;DHT22;21661;50.794;-1.066;2023-03-01T13:13:47;7.80;99.90
35559;DHT22;21661;50.794;-1.066;2023-03-01T13:16:38;7.80;99.90
35559;DHT22;21661;50.794;-1.066;2023-03-01T13:19:14;7.80;99.90
35559;DHT22;21661;50.794;-1.066;2023-03-01T13:21:41;7.80;99.90
35559;DHT22;21661;50.794;-1.066;2023-03-01T13:24:37;7.70;99.90
35559;DHT22;21661;50.794;-1.066;2023-03-01T13:34:56;7.80;99.90
35559;DHT22;21661;50.794;-1.066;2023-03-01T13:37:30;7.80;99.90
35559;DHT22;21661;50.794;-1.066;2023-03-01T13:39:58;7.90;99.90
35559;DHT22;21661;50.794;-1.066;2023-03-01T13:42:41;7.90;99.90
35559;DHT22;21661;50.794;-1.066;2023-03-01T13:45:52;7.90;99.90
35559;DHT22;21661;50.794;-1.066;2023-03-01T13:48:26;7.90;99.90
35559;DHT22;21661;50.794;-1.066;2023-03-01T13:51:03;7.90;99.90
35559;DHT22;21661;50.794;-1.066;2023-03-01T13:53:33;7.80;99.90
35559;DHT22;21661;50.794;-1.066;2023-03-01T13:56:12;7.80;99.90
35559;DHT22;21661;50.794;-1.066;2023-03-01T13:58:53;7.90;99.90
35559;DHT22;21661;50.794;-1.066;2023-03-01T14:03:50;8.00;99.90
35559;DHT22;21661;50.794;-1.066;2023-03-01T14:06:20;8.00;99.90
35559;DHT22;21661;50.794;-1.066;2023-03-01T14:08:48;8.00;99.90
35559;DHT22;21661;50.794;-1.066;2023-03-01T14:14:29;8.00;99.90
35559;DHT22;21661;50.794;-1.066;2023-03-01T14:19:47;8.10;99.90
35559;DHT22;21661;50.794;-1.066;2023-03-01T14:24:51;8.00;99.90
35559;DHT22;21661;50.794;-1.066;2023-03-01T14:27:18;8.10;99.90
35559;DHT22;21661;50.794;-1.066;2023-03-01T14:29:54;8.10;99.90
35559;DHT22;21661;50.794;-1.066;2023-03-01T14:32:24;8.20;99.90
35559;DHT22;21661;50.794;-1.066;2023-03-01T14:34:51;8.20;99.90
35559;DHT22;21661;50.794;-1.066;2023-03-01T14:37:33;8.20;99.90
35559;DHT22;21661;50.794;-1.066;2023-03-01T14:40:00;8.20;99.90
35559;DHT22;21661;50.794;-1.066;2023-03-01T14:42:29;8.20;99.90
35559;DHT22;21661;50.794;-1.066;2023-03-01T14:44:57;8.20;99.90
35559;DHT22;21661;50.794;-1.066;2023-03-01T14:47:28;8.20;99.90
35559;DHT22;21661;50.794;-1.066;2023-03-01T14:50:09;8.20;99.90
35559;DHT22;21661;50.794;-1.066;2023-03-01T14:52:40;8.20;99.90
35559;DHT22;21661;50.794;-1.066;2023-03-01T14:55:16;8.10;99.90
35559;DHT22;21661;50.794;-1.066;2023-03-01T14:57:44;8.20;99.90
35559;DHT22;21661;50.794;-1.066;2023-03-01T15:00:20;8.20;99.90
35559;DHT22;21661;50.794;-1.066;2023-03-01T15:02:48;8.10;99.90
35559;DHT22;21661;50.794;-1.066;2023-03-01T15:05:15;8.10;99.90
35559;DHT22;21661;50.794;-1.066;2023-03-01T15:07:44;8.10;99.90
35559;DHT22;21661;50.794;-1.066;2023-03-01T15:10:22;8.20;99.90
35559;DHT22;21661;50.794;-1.066;2023-03-01T15:12:48;8.30;99.90
35559;DHT22;21661;50.794;-1.066;2023-03-01T15:17:58;8.40;99.90
35559;DHT22;21661;50.794;-1.066;2023-03-01T15:20:26;8.50;99.90
35559;DHT22;21661;50.794;-1.066;2023-03-01T15:22:53;8.50;99.90
35559;DHT22;21661;50.794;-1.066;2023-03-01T15:25:26;8.50;99.90
35559;DHT22;21661;50.794;-1.066;2023-03-01T15:27:54;8.50;99.90
35559;DHT22;21661;50.794;-1.066;2023-03-01T15:30:23;8.40;99.90
35559;DHT22;21661;50.794;-1.066;2023-03-01T15:33:16;8.40;99.90
35559;DHT22;21661;50.794;-1.066;2023-03-01T15:35:46;8.50;99.90
35559;DHT22;21661;50.794;-1.066;2023-03-01T15:41:05;8.40;99.90
35559;DHT22;21661;50.794;-1.066;2023-03-01T15:43:46;8.40;99.90
35559;DHT22;21661;50.794;-1.066;2023-03-01T15:46:33;8.40;99.90
35559;DHT22;21661;50.794;-1.066;2023-03-01T15:49:02;8.40;99.90
35559;DHT22;21661;50.794;-1.066;2023-03-01T15:51:32;8.50;99.90
35559;DHT22;21661;50.794;-1.066;2023-03-01T15:54:00;8.50;99.90
35559;DHT22;21661;50.794;-1.066;2023-03-01T15:56:26;8.50;99.90
35559;DHT22;21661;50.794;-1.066;2023-03-01T15:58:52;8.50;99.90
35559;DHT22;21661;50.794;-1.066;2023-03-01T16:01:18;8.60;99.90
35559;DHT22;21661;50.794;-1.066;2023-03-01T16:03:44;8.50;99.90
35559;DHT22;21661;50.794;-1.066;2023-03-01T16:06:10;8.50;99.90
35559;DHT22;21661;50.794;-1.066;2023-03-01T16:08:37;8.40;99.90
35559;DHT22;21661;50.794;-1.066;2023-03-01T16:11:09;8.40;99.90
35559;DHT22;21661;50.794;-1.066;2023-03-01T16:13:36;8.40;99.90
35559;DHT22;21661;50.794;-1.066;2023-03-01T16:16:02;8.40;99.90
35559;DHT22;21661;50.794;-1.066;2023-03-01T16:18:28;8.40;99.90
35559;DHT22;21661;50.794;-1.066;2023-03-01T16:20:53;8.40;99.90
35559;DHT22;21661;50.794;-1.066;2023-03-01T16:23:19;8.40;99.90
35559;DHT22;21661;50.794;-1.066;2023-03-01T16:25:46;8.40;99.90
35559;DHT22;21661;50.794;-1.066;2023-03-01T16:28:12;8.40;99.90
35559;DHT22;21661;50.794;-1.066;2023-03-01T16:30:38;8.40;99.90
35559;DHT22;21661;50.794;-1.066;2023-03-01T16:33:04;8.40;99.90
35559;DHT22;21661;50.794;-1.066;2023-03-01T16:35:39;8.50;99.90
35559;DHT22;21661;50.794;-1.066;2023-03-01T16:38:05;8.50;99.90
35559;DHT22;21661;50.794;-1.066;2023-03-01T16:40:30;8.50;99.90
35559;DHT22;21661;50.794;-1.066;2023-03-01T16:42:56;8.50;99.90
35559;DHT22;21661;50.794;-1.066;2023-03-01T16:45:25;8.40;99.90
35559;DHT22;21661;50.794;-1.066;2023-03-01T16:47:51;8.40;99.90
35559;DHT22;21661;50.794;-1.066;2023-03-01T16:50:17;8.40;99.90
35559;DHT22;21661;50.794;-1.066;2023-03-01T16:52:42;8.40;99.90
35559;DHT22;21661;50.794;-1.066;2023-03-01T16:55:08;8.40;99.90
35559;DHT22;21661;50.794;-1.066;2023-03-01T16:57:38;8.30;99.90
35559;DHT22;21661;50.794;-1.066;2023-03-01T17:00:10;8.30;99.90
35559;DHT22;21661;50.794;-1.066;2023-03-01T17:02:38;8.20;99.90
35559;DHT22;21661;50.794;-1.066;2023-03-01T17:05:05;8.20;99.90
35559;DHT22;21661;50.794;-1.066;2023-03-01T17:07:32;8.20;99.90
35559;DHT22;21661;50.794;-1.066;2023-03-01T17:09:59;8.20;99.90
35559;DHT22;21661;50.794;-1.066;2023-03-01T17:12:25;8.20;99.90
35559;DHT22;21661;50.794;-1.066;2023-03-01T17:14:50;8.20;99.90
35559;DHT22;21661;50.794;-1.066;2023-03-01T17:17:16;8.20;99.90
35559;DHT22;21661;50.794;-1.066;2023-03-01T17:19:42;8.20;99.90
35559;DHT22;21661;50.794;-1.066;2023-03-01T17:22:09;8.20;99.90
35559;DHT22;21661;50.794;-1.066;2023-03-01T17:24:37;8.20;99.90
35559;DHT22;21661;50.794;-1.066;2023-03-01T17:27:03;8.10;99.90
35559;DHT22;21661;50.794;-1.066;2023-03-01T17:29:29;8.10;99.90
35559;DHT22;21661;50.794;-1.066;2023-03-01T17:31:55;8.10;99.90
35559;DHT22;21661;50.794;-1.066;2023-03-01T17:34:21;8.10;99.90
35559;DHT22;21661;50.794;-1.066;2023-03-01T17:36:47;8.20;99.90